Time;durP1;ratioP1;P1;durP2;ratioP2;P2;SDS_P1;SDS_P2;PMS_P1;PMS_P2;Temp;Humidity;BMP_temperature;BMP_pressure;BME280_temperature;BME280_humidity;BME280_pressure;Samples;Min_cycle;Max_cycle;Signal;HPM_P1;HPM_P2
2021/11/27 00:01:29;;;;;;;3.33;1.88;;;;;;;3.37;97.97;95865.81;5064919;28;20025;-67
2021/11/27 00:03:54;;;;;;;2.45;1.75;;;;;;;3.34;98.03;95871.13;5064917;28;20297;-67
2021/11/27 00:06:22;;;;;;;2.90;1.80;;;;;;;3.45;97.89;95863.78;5064827;28;20324;-67
2021/11/27 00:08:47;;;;;;;2.40;1.85;;;;;;;3.44;97.50;95845.63;5065184;28;20205;-67
2021/11/27 00:11:12;;;;;;;3.25;2.00;;;;;;;3.41;97.30;95849.22;5064813;28;20025;-67
2021/11/27 00:13:38;;;;;;;5.57;2.25;;;;;;;3.36;97.41;95851.09;5064339;28;20021;-67
2021/11/27 00:16:03;;;;;;;4.15;2.08;;;;;;;3.19;98.27;95856.06;5064657;28;20055;-67
2021/11/27 00:18:29;;;;;;;4.72;2.05;;;;;;;3.29;98.42;95847.03;5064898;28;20320;-67
2021/11/27 00:21:19;;;;;;;3.63;2.10;;;;;;;3.26;98.67;95844.53;5065422;28;20071;-67
2021/11/27 00:23:45;;;;;;;4.35;1.75;;;;;;;3.26;98.57;95847.13;5065902;28;20020;-67
2021/11/27 00:26:13;;;;;;;3.47;1.95;;;;;;;3.32;98.38;95844.31;5065848;28;20221;-67
2021/11/27 00:28:38;;;;;;;3.13;1.85;;;;;;;3.39;98.45;95832.81;5065825;28;20051;-67
2021/11/27 00:31:08;;;;;;;3.28;2.08;;;;;;;3.38;97.88;95851.06;5065369;28;20036;-67
2021/11/27 00:33:34;;;;;;;6.45;2.40;;;;;;;3.43;98.08;95839.63;5065141;28;20332;-67
2021/11/27 00:35:59;;;;;;;4.20;1.98;;;;;;;3.33;97.74;95834.78;5065310;28;20074;-67
2021/11/27 00:38:25;;;;;;;4.38;2.45;;;;;;;3.35;98.58;95831.22;5065359;28;20044;-67
2021/11/27 00:40:52;;;;;;;3.38;2.00;;;;;;;3.30;97.99;95827.97;5065401;28;20048;-67
2021/11/27 00:43:18;;;;;;;3.83;2.40;;;;;;;3.38;98.16;95805.13;5064020;28;20080;-67
2021/11/27 00:45:45;;;;;;;4.10;2.10;;;;;;;3.37;98.05;95824.22;5065216;28;20074;-67
2021/11/27 00:48:12;;;;;;;3.85;2.50;;;;;;;3.38;97.44;95818.13;5065066;28;20346;-67
2021/11/27 00:50:43;;;;;;;3.88;2.40;;;;;;;3.41;98.00;95810.22;5065120;28;20075;-67
2021/11/27 00:53:08;;;;;;;4.60;2.60;;;;;;;3.39;98.06;95806.81;5064806;28;20029;-67
2021/11/27 00:55:34;;;;;;;4.55;2.35;;;;;;;3.41;97.27;95805.00;5065028;28;20039;-67
2021/11/27 00:58:00;;;;;;;3.90;2.53;;;;;;;3.41;98.06;95794.63;5064790;28;20084;-67
2021/11/27 01:00:31;;;;;;;4.10;2.63;;;;;;;3.37;97.42;95793.03;5064910;28;20032;-67
2021/11/27 01:02:59;;;;;;;4.70;2.40;;;;;;;3.45;98.12;95790.16;5056630;28;20024;-67
2021/11/27 01:05:24;;;;;;;3.45;2.10;;;;;;;3.42;97.65;95783.31;5065033;28;20139;-67
2021/11/27 01:07:50;;;;;;;3.92;2.53;;;;;;;3.47;97.53;95778.81;5064644;28;20020;-67
2021/11/27 01:10:19;;;;;;;3.83;2.28;;;;;;;3.48;97.37;95759.69;5064566;28;20020;-67
2021/11/27 01:12:45;;;;;;;4.50;2.50;;;;;;;3.40;96.69;95771.28;5064746;28;20092;-67
2021/11/27 01:15:13;;;;;;;3.47;2.45;;;;;;;3.43;97.18;95765.97;5064363;28;20071;-67
2021/11/27 01:17:39;;;;;;;4.15;2.38;;;;;;;3.47;97.10;95763.19;5064717;28;20025;-67
2021/11/27 01:20:07;;;;;;;4.35;2.40;;;;;;;3.50;96.72;95763.09;5063205;28;20032;-67
2021/11/27 01:22:32;;;;;;;3.17;1.95;;;;;;;3.56;96.28;95770.66;5063757;28;20023;-67
2021/11/27 01:24:58;;;;;;;5.60;2.15;;;;;;;3.58;96.03;95761.03;5064369;28;20040;-67
2021/11/27 01:27:26;;;;;;;4.72;2.25;;;;;;;3.59;95.80;95773.16;5064205;28;20066;-67
2021/11/27 01:29:51;;;;;;;2.35;1.75;;;;;;;3.58;95.72;95765.41;5064602;28;20316;-67
2021/11/27 01:32:17;;;;;;;2.72;2.25;;;;;;;3.64;95.61;95758.19;5064071;28;20100;-67
2021/11/27 01:34:43;;;;;;;2.70;1.90;;;;;;;3.67;95.80;95749.47;5063995;28;20096;-67
2021/11/27 01:37:09;;;;;;;3.83;2.05;;;;;;;3.60;95.17;95748.84;5064229;28;20020;-67
2021/11/27 01:39:36;;;;;;;3.30;2.00;;;;;;;3.64;95.66;95752.19;5064449;28;20017;-67
2021/11/27 01:42:02;;;;;;;2.80;1.88;;;;;;;3.72;95.56;95756.19;5064561;28;20324;-67
2021/11/27 01:44:27;;;;;;;2.30;1.58;;;;;;;3.61;95.83;95755.72;5063700;28;20309;-67
2021/11/27 01:46:54;;;;;;;2.63;1.70;;;;;;;3.60;95.81;95754.03;5063972;28;20031;-67
2021/11/27 01:49:19;;;;;;;2.00;1.40;;;;;;;3.59;96.04;95757.56;5064170;28;20017;-67
2021/11/27 01:51:45;;;;;;;3.20;1.85;;;;;;;3.51;95.60;95754.38;5064492;28;20263;-67
2021/11/27 01:54:12;;;;;;;2.38;1.67;;;;;;;3.53;96.23;95752.56;5064217;28;20027;-67
2021/11/27 01:56:51;;;;;;;3.33;1.70;;;;;;;3.51;95.74;95746.56;5064416;28;20204;-67
2021/11/27 01:59:18;;;;;;;4.22;1.60;;;;;;;3.51;96.42;95743.97;5064152;28;20067;-67
2021/11/27 02:01:48;;;;;;;3.08;1.40;;;;;;;3.44;96.91;95737.31;5063651;28;20070;-67
2021/11/27 02:04:14;;;;;;;2.35;1.15;;;;;;;3.38;96.76;95734.94;5063578;28;20021;-67
2021/11/27 02:06:42;;;;;;;2.03;1.25;;;;;;;3.24;97.19;95734.63;5063700;28;20028;-67
2021/11/27 02:09:13;;;;;;;1.75;1.35;;;;;;;3.31;96.93;95733.50;5064245;28;20301;-67
2021/11/27 02:11:39;;;;;;;1.93;1.40;;;;;;;3.30;97.17;95724.00;5064150;28;20017;-67
2021/11/27 02:14:07;;;;;;;1.40;1.00;;;;;;;3.30;97.39;95729.22;5063941;28;20043;-67
2021/11/27 02:16:34;;;;;;;1.75;1.30;;;;;;;3.35;97.59;95732.47;5063730;28;20199;-67
2021/11/27 02:19:00;;;;;;;1.77;1.20;;;;;;;3.30;97.19;95724.00;5063517;28;20091;-67
2021/11/27 02:21:25;;;;;;;3.38;1.40;;;;;;;3.22;97.39;95726.03;5063819;28;20013;-67
2021/11/27 02:23:53;;;;;;;1.58;1.10;;;;;;;3.24;97.32;95734.63;5063505;28;20202;-67
2021/11/27 02:26:22;;;;;;;1.67;1.30;;;;;;;3.27;97.28;95726.72;5063401;28;20428;-67
2021/11/27 02:28:50;;;;;;;1.88;1.23;;;;;;;3.31;97.21;95732.63;5063430;28;20201;-67
2021/11/27 02:31:17;;;;;;;4.05;1.30;;;;;;;3.29;97.50;95724.88;5063519;28;20020;-67
2021/11/27 02:33:42;;;;;;;3.25;1.23;;;;;;;3.28;97.02;95741.41;5055317;28;20092;-67
2021/11/27 02:36:08;;;;;;;1.75;1.33;;;;;;;3.39;97.19;95728.84;5063606;28;20335;-67
2021/11/27 02:38:33;;;;;;;3.45;1.20;;;;;;;3.33;97.43;95729.09;5063700;28;20071;-67
2021/11/27 02:40:58;;;;;;;1.60;1.10;;;;;;;3.33;96.96;95728.22;5063702;28;20029;-67
2021/11/27 02:43:24;;;;;;;1.75;1.15;;;;;;;3.23;97.12;95730.31;5063859;28;20021;-67
2021/11/27 02:45:50;;;;;;;2.60;1.63;;;;;;;3.25;97.26;95720.72;5063343;28;20040;-67
2021/11/27 02:48:16;;;;;;;1.98;1.40;;;;;;;3.23;98.14;95725.13;5063643;28;20316;-67
2021/11/27 02:50:41;;;;;;;1.80;1.40;;;;;;;3.25;97.84;95728.50;5063628;28;20021;-66
2021/11/27 02:53:07;;;;;;;2.58;1.70;;;;;;;3.31;97.53;95720.50;5063198;28;20021;-67
2021/11/27 02:55:33;;;;;;;1.38;1.17;;;;;;;3.31;97.34;95722.22;5063750;28;20013;-67
2021/11/27 02:57:58;;;;;;;2.63;1.50;;;;;;;3.27;97.64;95721.53;5067273;28;20087;-67
2021/11/27 03:00:24;;;;;;;1.73;1.45;;;;;;;3.30;96.93;95721.41;5067102;28;20025;-67
2021/11/27 03:02:51;;;;;;;3.30;1.65;;;;;;;3.34;97.76;95715.19;5067091;28;20032;-67
2021/11/27 03:05:18;;;;;;;1.42;1.10;;;;;;;3.26;97.25;95718.97;5067236;28;20205;-67
2021/11/27 03:07:43;;;;;;;2.13;1.55;;;;;;;3.34;97.54;95717.78;5058963;28;20055;-67
2021/11/27 03:10:11;;;;;;;2.30;1.73;;;;;;;3.41;97.33;95713.19;5067101;28;20316;-67
2021/11/27 03:12:37;;;;;;;4.30;1.80;;;;;;;3.38;96.72;95714.16;5066619;28;20021;-67
2021/11/27 03:15:04;;;;;;;2.03;1.55;;;;;;;3.47;96.61;95715.56;5066708;28;20016;-67
2021/11/27 03:17:29;;;;;;;2.92;1.60;;;;;;;3.40;96.33;95704.56;5066597;28;20044;-67
2021/11/27 03:19:55;;;;;;;2.38;1.65;;;;;;;3.37;97.05;95707.28;5066819;28;20269;-67
2021/11/27 03:22:21;;;;;;;1.88;1.45;;;;;;;3.40;96.71;95701.97;5067287;28;20028;-67
2021/11/27 03:24:46;;;;;;;3.47;1.90;;;;;;;3.49;96.32;95709.41;5067158;28;20053;-66
2021/11/27 03:27:15;;;;;;;2.28;1.60;;;;;;;3.45;96.28;95713.00;5067011;28;20213;-66
2021/11/27 03:29:42;;;;;;;2.15;1.52;;;;;;;3.53;96.00;95705.78;5067223;28;20086;-67
2021/11/27 03:32:12;;;;;;;1.98;1.60;;;;;;;3.52;96.30;95709.28;5066780;28;20052;-67
2021/11/27 03:34:38;;;;;;;2.92;1.60;;;;;;;3.46;96.74;95699.13;5066913;28;20025;-67
2021/11/27 03:37:04;;;;;;;2.83;1.88;;;;;;;3.38;96.35;95695.97;5066770;28;20036;-67
2021/11/27 03:39:29;;;;;;;2.45;2.08;;;;;;;3.38;97.04;95695.97;5066552;28;20316;-67
2021/11/27 03:41:55;;;;;;;3.72;2.00;;;;;;;3.40;97.28;95699.34;5066455;28;20091;-67
2021/11/27 03:44:21;;;;;;;3.28;1.85;;;;;;;3.48;96.74;95702.50;5066121;28;20021;-67
2021/11/27 03:46:47;;;;;;;3.15;1.90;;;;;;;3.38;97.62;95716.75;5066142;28;20336;-67
2021/11/27 03:49:12;;;;;;;3.15;1.90;;;;;;;3.42;97.21;95713.13;5066536;28;20355;-66
2021/11/27 03:51:38;;;;;;;2.28;2.00;;;;;;;3.42;97.14;95718.31;5066496;28;20024;-66
2021/11/27 03:54:04;;;;;;;3.30;2.38;;;;;;;3.39;97.89;95730.59;5066462;28;20056;-67
2021/11/27 03:56:30;;;;;;;2.58;1.83;;;;;;;3.46;97.84;95737.25;5066373;28;20024;-67
2021/11/27 03:59:01;;;;;;;4.00;2.65;;;;;;;3.44;97.54;95734.72;5064850;28;20062;-66
2021/11/27 04:01:28;;;;;;;3.38;2.28;;;;;;;3.42;97.61;95739.13;5066151;28;20308;-67
2021/11/27 04:03:56;;;;;;;4.35;2.53;;;;;;;3.44;97.48;95744.25;5065784;28;20021;-67
2021/11/27 04:06:21;;;;;;;5.85;2.55;;;;;;;3.51;97.35;95738.78;5057916;28;20021;-67
2021/11/27 04:08:47;;;;;;;4.78;2.22;;;;;;;3.46;97.60;95729.47;5065198;28;20025;-67
2021/11/27 04:11:13;;;;;;;5.53;2.78;;;;;;;3.43;96.92;95737.38;5065802;28;20315;-67
2021/11/27 04:13:38;;;;;;;3.85;2.60;;;;;;;3.49;97.25;95745.81;5066144;28;20013;-66
2021/11/27 04:16:04;;;;;;;4.35;2.70;;;;;;;3.43;97.41;95742.56;5065485;28;20355;-66
2021/11/27 04:18:30;;;;;;;3.08;2.15;;;;;;;3.47;97.09;95732.00;5065615;28;20021;-67
2021/11/27 04:20:55;;;;;;;4.78;2.78;;;;;;;3.36;97.23;95728.94;5065740;28;20021;-67
2021/11/27 04:23:21;;;;;;;5.25;3.03;;;;;;;3.47;97.73;95736.34;5065516;28;20029;-67
2021/11/27 04:25:47;;;;;;;4.30;2.50;;;;;;;3.57;97.32;95741.16;5065792;28;20031;-67
2021/11/27 04:28:12;;;;;;;3.58;2.20;;;;;;;3.54;97.17;95733.47;5065432;28;20020;-67
2021/11/27 04:30:39;;;;;;;3.65;2.63;;;;;;;3.58;96.91;95744.59;5065461;28;20020;-67
2021/11/27 04:33:05;;;;;;;4.70;3.00;;;;;;;3.52;97.10;95740.50;5065416;28;20324;-67
2021/11/27 04:35:32;;;;;;;3.70;2.50;;;;;;;3.50;97.80;95747.50;5065327;28;20021;-66
2021/11/27 04:37:58;;;;;;;5.55;2.80;;;;;;;3.36;97.64;95739.34;5064153;28;20220;-67
2021/11/27 04:40:24;;;;;;;4.18;2.75;;;;;;;3.44;97.65;95747.72;5065331;28;20028;-67
2021/11/27 04:42:50;;;;;;;4.13;2.88;;;;;;;3.45;98.06;95759.81;5065200;28;20336;-67
2021/11/27 04:45:16;;;;;;;3.88;2.88;;;;;;;3.42;98.21;95754.72;5065054;28;20032;-67
2021/11/27 04:47:42;;;;;;;4.68;2.75;;;;;;;3.50;98.23;95757.88;5065257;28;20054;-67
2021/11/27 04:50:09;;;;;;;3.90;2.45;;;;;;;3.45;97.82;95762.41;5065294;28;20024;-67
2021/11/27 04:52:34;;;;;;;5.50;2.15;;;;;;;3.49;97.90;95761.41;5065051;28;20024;-67
2021/11/27 04:55:00;;;;;;;5.00;2.70;;;;;;;3.47;98.06;95754.53;5064946;28;20316;-67
2021/11/27 04:57:25;;;;;;;9.27;3.15;;;;;;;3.48;98.24;95762.28;5064902;28;20025;-67
2021/11/27 04:59:51;;;;;;;4.28;2.65;;;;;;;3.49;98.03;95761.41;5064987;28;20043;-67
2021/11/27 05:02:16;;;;;;;3.55;2.63;;;;;;;3.57;98.00;95758.50;5064956;28;20017;-67
2021/11/27 05:04:42;;;;;;;4.60;2.75;;;;;;;3.54;97.81;95769.88;5064554;28;20021;-66
2021/11/27 05:07:07;;;;;;;5.85;3.05;;;;;;;3.53;97.51;95770.78;5064756;28;20101;-67
2021/11/27 05:09:33;;;;;;;4.35;2.70;;;;;;;3.61;97.94;95771.31;5065033;28;20017;-67
2021/11/27 05:11:59;;;;;;;3.95;2.50;;;;;;;3.63;97.59;95773.84;5064602;28;20028;-67
2021/11/27 05:14:25;;;;;;;4.35;2.90;;;;;;;3.65;97.20;95785.91;5064805;28;20304;-67
2021/11/27 05:16:50;;;;;;;5.07;3.08;;;;;;;3.62;97.72;95783.44;5064403;28;20048;-67
2021/11/27 05:19:16;;;;;;;4.45;3.17;;;;;;;3.56;97.88;95788.00;5063660;28;20036;-67
2021/11/27 05:21:41;;;;;;;9.57;3.55;;;;;;;3.51;97.12;95790.78;5064263;28;20205;-67
2021/11/27 05:24:06;;;;;;;4.90;3.03;;;;;;;3.51;97.47;95790.78;5064301;28;20127;-67
2021/11/27 05:26:32;;;;;;;5.68;3.20;;;;;;;3.47;98.07;95789.19;5064354;28;20017;-67
2021/11/27 05:28:58;;;;;;;4.68;2.97;;;;;;;3.46;98.22;95797.06;5064233;28;20336;-67
2021/11/27 05:31:24;;;;;;;4.60;3.10;;;;;;;3.43;98.41;95795.41;5064637;28;20267;-67
2021/11/27 05:36:32;;;;;;;5.20;3.08;;;;;;;3.39;98.93;95795.59;5064594;28;20021;-67
2021/11/27 05:38:58;;;;;;;5.22;3.22;;;;;;;3.52;97.87;95813.28;5064122;28;20017;-67
2021/11/27 05:41:24;;;;;;;6.38;2.95;;;;;;;3.45;98.41;95806.59;5064160;28;20215;-67
2021/11/27 05:43:49;;;;;;;4.55;2.80;;;;;;;3.49;97.86;95809.94;5064044;28;20021;-67
2021/11/27 05:46:15;;;;;;;4.57;2.83;;;;;;;3.39;98.85;95801.63;5064080;28;20028;-67
2021/11/27 05:48:41;;;;;;;4.80;2.95;;;;;;;3.46;98.20;95802.25;5063818;28;20059;-67
2021/11/27 05:51:06;;;;;;;6.55;3.40;;;;;;;3.49;98.20;95803.00;5063880;28;20024;-67
2021/11/27 05:53:31;;;;;;;6.28;3.50;;;;;;;3.50;98.57;95809.88;5063934;28;20024;-67
2021/11/27 05:55:57;;;;;;;3.65;2.55;;;;;;;3.50;98.06;95814.22;5063832;28;20059;-67
2021/11/27 05:58:23;;;;;;;5.30;3.53;;;;;;;3.44;98.54;95809.25;5063922;28;20347;-67
2021/11/27 06:00:50;;;;;;;5.28;3.40;;;;;;;3.46;98.40;95813.50;5063714;28;20250;-67
2021/11/27 06:03:15;;;;;;;7.53;3.55;;;;;;;3.50;98.83;95809.88;5063567;28;20028;-66
2021/11/27 06:05:41;;;;;;;5.50;3.00;;;;;;;3.39;98.66;95817.22;5063762;28;20071;-67
2021/11/27 06:08:06;;;;;;;5.47;3.42;;;;;;;3.45;98.84;95814.38;5063781;28;20025;-67
2021/11/27 06:10:32;;;;;;;6.13;3.42;;;;;;;3.44;98.54;95814.44;5063895;28;20095;-67
2021/11/27 06:12:58;;;;;;;8.05;3.95;;;;;;;3.29;98.91;95810.66;5063657;28;20023;-67
2021/11/27 06:15:23;;;;;;;5.97;3.67;;;;;;;3.40;98.96;95810.28;5063438;28;20024;-66
2021/11/27 06:17:49;;;;;;;5.30;3.10;;;;;;;3.42;98.95;95814.50;5063705;28;20017;-66
2021/11/27 06:20:15;;;;;;;7.43;3.50;;;;;;;3.45;99.33;95822.19;5063095;28;20017;-67
2021/11/27 06:22:40;;;;;;;5.15;3.38;;;;;;;3.51;98.77;95816.78;5063333;28;20024;-66
2021/11/27 06:25:06;;;;;;;5.25;3.30;;;;;;;3.53;98.57;95825.38;5063512;28;20055;-67
2021/11/27 06:27:32;;;;;;;4.75;3.00;;;;;;;3.55;98.43;95823.53;5063501;28;20021;-66
2021/11/27 06:29:58;;;;;;;9.57;3.13;;;;;;;3.45;98.02;95819.59;5061800;28;20048;-67
2021/11/27 06:32:24;;;;;;;5.38;3.25;;;;;;;3.31;97.92;95829.66;5068940;28;20016;-67
2021/11/27 06:34:54;;;;;;;4.28;3.03;;;;;;;3.46;98.18;95828.25;5069227;28;20017;-67
2021/11/27 06:37:21;;;;;;;5.72;3.17;;;;;;;3.39;97.92;95837.19;5061136;28;20024;-67
2021/11/27 06:39:47;;;;;;;4.85;2.95;;;;;;;3.48;98.22;95842.88;5069186;28;20029;-67
2021/11/27 06:42:13;;;;;;;4.95;3.28;;;;;;;3.44;98.28;95840.44;5068839;28;20070;-67
2021/11/27 06:44:47;;;;;;;6.03;3.35;;;;;;;3.36;98.58;95843.31;5069102;28;20025;-67
2021/11/27 06:47:23;;;;;;;4.57;2.90;;;;;;;3.42;98.62;95853.50;5076497;28;20320;-67
2021/11/27 06:49:50;;;;;;;5.63;2.55;;;;;;;3.45;98.29;95850.78;5069373;28;20084;-67
2021/11/27 06:52:16;;;;;;;6.40;3.40;;;;;;;3.45;98.13;95848.19;5069340;28;20028;-67
2021/11/27 06:54:42;;;;;;;5.38;3.50;;;;;;;3.46;98.25;95859.44;5068527;28;20036;-67
2021/11/27 06:57:08;;;;;;;8.95;3.95;;;;;;;3.53;98.50;95861.78;5069167;28;20063;-67
2021/11/27 06:59:34;;;;;;;5.85;3.15;;;;;;;3.52;98.19;95870.47;5069121;28;20324;-67
2021/11/27 07:02:00;;;;;;;7.45;3.88;;;;;;;3.54;98.26;95868.66;5068992;28;20198;-67
2021/11/27 07:04:25;;;;;;;7.53;4.18;;;;;;;3.59;98.03;95869.34;5068854;28;20013;-67
2021/11/27 07:06:50;;;;;;;7.93;3.75;;;;;;;3.59;97.51;95866.75;5068813;28;20032;-67
2021/11/27 07:09:16;;;;;;;6.45;4.18;;;;;;;3.55;98.02;95867.75;5068561;28;20016;-67
2021/11/27 07:11:41;;;;;;;6.88;4.50;;;;;;;3.61;97.62;95870.13;5061064;28;20033;-67
2021/11/27 07:14:07;;;;;;;7.05;4.28;;;;;;;3.63;96.83;95878.72;5066065;28;20020;-67
2021/11/27 07:16:32;;;;;;;8.88;4.45;;;;;;;3.66;96.92;95883.81;5068305;28;20087;-67
2021/11/27 07:18:57;;;;;;;7.88;4.00;;;;;;;3.65;96.69;95879.53;5064090;28;20040;-67
2021/11/27 07:21:23;;;;;;;7.18;4.55;;;;;;;3.67;97.00;95890.72;5067865;28;20320;-67
2021/11/27 07:23:48;;;;;;;8.25;5.05;;;;;;;3.64;97.56;95906.41;5068809;28;20020;-68
2021/11/27 07:26:14;;;;;;;7.32;5.00;;;;;;;3.64;97.11;95897.78;5068311;28;20332;-67
2021/11/27 07:28:39;;;;;;;9.60;5.32;;;;;;;3.63;97.43;95909.06;5068525;28;20020;-67
2021/11/27 07:31:05;;;;;;;7.00;4.63;;;;;;;3.71;97.40;95913.13;5068360;28;20100;-67
2021/11/27 07:33:30;;;;;;;9.18;5.57;;;;;;;3.76;97.43;95918.13;5068356;28;20337;-67
2021/11/27 07:35:56;;;;;;;9.90;5.35;;;;;;;3.80;97.17;95924.94;5067745;28;20029;-67
2021/11/27 07:38:21;;;;;;;13.02;6.07;;;;;;;3.75;97.29;95922.50;5068637;28;20238;-67
2021/11/27 07:40:47;;;;;;;10.50;6.00;;;;;;;3.75;96.92;95930.31;5068607;28;20024;-67
2021/11/27 07:43:12;;;;;;;9.82;5.40;;;;;;;3.78;97.39;95932.81;5065055;28;20028;-67
2021/11/27 07:45:37;;;;;;;9.30;5.82;;;;;;;3.79;97.05;95937.09;5064981;28;20025;-67
2021/11/27 07:48:03;;;;;;;11.02;6.10;;;;;;;3.84;96.84;95945.59;5064707;28;20213;-67
2021/11/27 07:50:29;;;;;;;12.60;6.45;;;;;;;3.86;97.33;95946.38;5065113;28;20024;-67
2021/11/27 07:52:55;;;;;;;10.77;6.45;;;;;;;3.91;97.33;95946.19;5064667;28;20036;-68
2021/11/27 07:55:20;;;;;;;9.07;6.30;;;;;;;3.93;96.82;95960.84;5065260;28;20028;-67
2021/11/27 07:57:45;;;;;;;9.48;5.78;;;;;;;3.94;96.96;95962.56;5068548;28;20328;-67
2021/11/27 08:00:11;;;;;;;10.80;6.30;;;;;;;3.95;97.42;95961.66;5057095;28;20031;-67
2021/11/27 08:02:37;;;;;;;9.27;6.00;;;;;;;3.95;96.52;95964.25;5065379;28;20016;-67
2021/11/27 08:05:03;;;;;;;10.73;6.32;;;;;;;3.83;96.74;95969.06;5065154;28;20028;-67
2021/11/27 08:07:28;;;;;;;12.57;7.38;;;;;;;3.81;97.61;95969.13;5065358;28;20236;-67
2021/11/27 08:09:54;;;;;;;11.10;7.20;;;;;;;3.91;97.28;95967.00;5065292;28;20084;-67
2021/11/27 08:12:19;;;;;;;10.93;7.70;;;;;;;3.92;97.70;95969.56;5065441;28;20047;-67
2021/11/27 08:14:45;;;;;;;13.82;8.48;;;;;;;3.89;97.76;95974.88;5064875;28;20028;-67
2021/11/27 08:17:10;;;;;;;11.02;7.00;;;;;;;3.93;97.44;95980.84;5065040;28;20098;-67
2021/11/27 08:19:35;;;;;;;11.88;8.10;;;;;;;3.90;97.21;95976.56;5069380;28;20309;-67
2021/11/27 08:22:00;;;;;;;13.65;8.30;;;;;;;3.93;97.55;95984.25;5075701;28;20044;-67
2021/11/27 08:24:26;;;;;;;12.63;8.48;;;;;;;3.93;97.22;95979.06;5064500;28;20063;-67
2021/11/27 08:26:52;;;;;;;15.57;10.52;;;;;;;3.93;97.10;95989.47;5063966;28;20347;-67
2021/11/27 08:29:18;;;;;;;14.80;9.23;;;;;;;3.98;96.79;95995.38;5064487;28;20032;-67
2021/11/27 08:31:43;;;;;;;13.55;9.18;;;;;;;4.03;97.07;96003.88;5063924;28;20088;-67
2021/11/27 08:34:08;;;;;;;14.25;9.88;;;;;;;4.04;97.11;96010.75;5063825;28;20017;-67
2021/11/27 08:36:34;;;;;;;15.10;10.13;;;;;;;3.93;97.25;96007.66;5064241;28;20252;-67
2021/11/27 08:38:59;;;;;;;16.85;10.85;;;;;;;4.02;97.52;96011.72;5064529;28;20088;-67
2021/11/27 08:41:25;;;;;;;17.70;11.75;;;;;;;4.01;97.06;96016.06;5064436;28;20071;-67
2021/11/27 08:43:50;;;;;;;17.63;11.00;;;;;;;4.07;96.98;96010.66;5063958;28;20062;-68
2021/11/27 08:46:16;;;;;;;16.38;10.55;;;;;;;4.02;97.33;96017.75;5063969;28;20031;-68
2021/11/27 08:48:41;;;;;;;18.00;11.02;;;;;;;4.13;97.28;96023.44;5064087;28;20017;-67
2021/11/27 08:51:09;;;;;;;16.40;10.38;;;;;;;4.09;97.47;96019.25;5064115;28;20025;-68
2021/11/27 08:53:36;;;;;;;16.23;10.85;;;;;;;4.09;97.05;96023.63;5062813;28;20131;-68
2021/11/27 08:56:02;;;;;;;16.90;11.00;;;;;;;4.14;96.52;96022.53;5064080;28;20205;-68
2021/11/27 08:58:27;;;;;;;18.25;10.32;;;;;;;4.23;96.82;96022.22;5064336;28;20029;-68
2021/11/27 09:00:53;;;;;;;19.27;11.48;;;;;;;4.23;96.58;96026.56;5064309;28;20029;-67
2021/11/27 09:03:18;;;;;;;20.05;11.70;;;;;;;4.19;96.81;96028.44;5064221;28;20071;-68
2021/11/27 09:05:44;;;;;;;19.92;11.20;;;;;;;4.20;96.88;96032.72;5063532;28;20032;-68
2021/11/27 09:08:09;;;;;;;19.17;10.63;;;;;;;4.18;97.01;96034.53;5063707;28;20020;-68
2021/11/27 09:10:35;;;;;;;17.52;10.90;;;;;;;4.24;97.28;96034.31;5063519;28;20017;-68
2021/11/27 09:13:01;;;;;;;15.77;10.52;;;;;;;4.25;97.18;96041.22;5063415;28;20028;-68
2021/11/27 09:15:26;;;;;;;15.55;10.35;;;;;;;4.32;97.39;96040.09;5063257;28;20240;-68
2021/11/27 09:17:52;;;;;;;16.80;9.63;;;;;;;4.38;96.67;96037.28;5063325;28;20036;-68
2021/11/27 09:20:17;;;;;;;16.50;9.48;;;;;;;4.45;96.85;96049.16;5063046;28;20021;-68
2021/11/27 09:22:43;;;;;;;14.05;8.13;;;;;;;4.51;96.80;96048.09;5063621;28;20032;-68
2021/11/27 09:25:09;;;;;;;14.85;8.18;;;;;;;4.52;95.97;96043.75;5063767;28;20063;-68
2021/11/27 09:27:35;;;;;;;10.90;7.25;;;;;;;4.60;95.94;96052.09;5064021;28;20362;-68
2021/11/27 09:30:00;;;;;;;13.88;8.05;;;;;;;4.66;95.73;96054.47;5063557;28;20040;-68
2021/11/27 09:32:25;;;;;;;11.85;7.88;;;;;;;4.73;95.91;96053.34;5070514;28;20031;-68
2021/11/27 09:34:53;;;;;;;15.32;7.78;;;;;;;4.81;95.25;96051.31;5079265;28;20024;-68
2021/11/27 09:37:18;;;;;;;12.48;7.88;;;;;;;4.79;94.67;96050.50;5064942;28;20016;-68
2021/11/27 09:39:45;;;;;;;12.80;7.65;;;;;;;4.76;94.54;96061.91;5079543;28;20016;-68
2021/11/27 09:42:16;;;;;;;12.73;8.15;;;;;;;4.81;94.34;96066.94;5083522;28;20039;-68
2021/11/27 09:44:53;;;;;;;12.77;7.93;;;;;;;4.78;94.42;96069.66;5083046;28;20045;-68
2021/11/27 09:47:19;;;;;;;14.88;7.88;;;;;;;4.83;93.56;96071.19;5083720;28;20024;-68
2021/11/27 09:49:45;;;;;;;12.10;8.13;;;;;;;4.70;93.32;96074.28;5067908;28;20025;-68
2021/11/27 09:52:12;;;;;;;12.25;7.63;;;;;;;4.73;93.30;96079.38;5063361;28;20317;-68
2021/11/27 09:54:38;;;;;;;13.75;8.25;;;;;;;4.69;94.26;96083.03;5057404;28;20163;-68
2021/11/27 09:57:06;;;;;;;12.95;7.63;;;;;;;4.88;93.91;96089.25;5063581;28;20028;-68
2021/11/27 09:59:33;;;;;;;15.18;8.55;;;;;;;4.96;93.66;96092.41;5062885;28;20071;-68
2021/11/27 10:02:00;;;;;;;12.00;7.80;;;;;;;4.88;93.27;96090.13;5063224;28;20029;-68
2021/11/27 10:04:28;;;;;;;13.00;8.13;;;;;;;4.83;92.58;96085.94;5063039;28;20048;-68
2021/11/27 10:06:57;;;;;;;17.10;8.48;;;;;;;4.81;92.30;96098.22;5063181;28;20343;-68
2021/11/27 10:09:23;;;;;;;13.05;8.55;;;;;;;4.85;93.71;96099.78;5063104;28;20324;-68
2021/11/27 10:11:50;;;;;;;16.42;9.23;;;;;;;4.98;92.52;96101.03;5062933;28;20032;-68
2021/11/27 10:14:17;;;;;;;14.20;8.38;;;;;;;4.94;92.83;96096.84;5063314;28;20044;-68
2021/11/27 10:17:00;;;;;;;12.50;7.15;;;;;;;4.95;92.51;96096.78;5062874;28;20064;-68
2021/11/27 10:19:46;;;;;;;13.32;7.85;;;;;;;4.86;92.44;96101.47;5062990;28;20048;-68
2021/11/27 10:22:25;;;;;;;12.73;7.40;;;;;;;4.90;93.69;96097.88;5063025;28;20056;-68
2021/11/27 10:24:51;;;;;;;13.20;8.30;;;;;;;4.90;93.17;96097.88;5067617;28;20021;-68
2021/11/27 10:27:26;;;;;;;14.30;8.25;;;;;;;4.80;93.50;96101.69;5062311;28;20039;-68
2021/11/27 10:30:10;;;;;;;13.68;8.52;;;;;;;4.87;93.33;96103.19;5062314;28;20067;-68
2021/11/27 10:32:38;;;;;;;15.45;8.55;;;;;;;4.85;93.60;96107.59;5061221;28;20036;-68
2021/11/27 10:35:12;;;;;;;12.43;7.65;;;;;;;4.83;93.35;96115.47;5062230;28;20025;-68
2021/11/27 10:37:44;;;;;;;12.88;7.47;;;;;;;4.84;93.78;96118.94;5060928;28;20028;-68
2021/11/27 10:40:19;;;;;;;13.45;7.53;;;;;;;4.93;93.53;96123.81;5062425;28;20036;-68
2021/11/27 10:43:00;;;;;;;11.25;7.32;;;;;;;4.95;93.25;96124.59;5061852;28;20032;-68
2021/11/27 10:45:31;;;;;;;13.32;7.40;;;;;;;5.05;93.09;96123.34;5056283;28;20028;-68
2021/11/27 10:48:09;;;;;;;10.57;7.03;;;;;;;4.98;92.83;96127.09;5058075;28;20051;-68
2021/11/27 10:50:39;;;;;;;8.30;5.28;;;;;;;4.95;91.91;96121.97;5057221;28;20084;-68
2021/11/27 10:53:13;;;;;;;10.18;5.78;;;;;;;4.96;91.23;96127.13;5061845;28;20025;-68
2021/11/27 10:55:40;;;;;;;9.70;6.25;;;;;;;4.98;91.17;96127.09;5061945;28;20025;-68
2021/11/27 10:58:07;;;;;;;13.70;7.00;;;;;;;4.98;92.07;96132.28;5062216;28;20024;-68
2021/11/27 11:00:45;;;;;;;17.13;7.50;;;;;;;5.05;91.83;96133.75;5060679;28;20020;-68
2021/11/27 11:03:30;;;;;;;12.25;6.50;;;;;;;5.08;91.39;96134.50;5061862;28;20017;-68
2021/11/27 11:05:58;;;;;;;12.88;7.15;;;;;;;5.16;91.47;96136.81;5061191;28;20081;-68
2021/11/27 11:08:32;;;;;;;10.38;6.40;;;;;;;5.21;92.42;96140.09;5061971;28;20021;-68
2021/11/27 11:10:57;;;;;;;9.05;6.38;;;;;;;5.22;92.74;96149.63;5061993;28;20213;-68
2021/11/27 11:13:29;;;;;;;13.18;7.28;;;;;;;5.21;93.03;96140.94;5062174;28;20233;-68
2021/11/27 11:15:54;;;;;;;12.60;6.57;;;;;;;5.12;93.03;96150.91;5061330;28;20033;-68
2021/11/27 11:18:25;;;;;;;10.55;6.75;;;;;;;5.16;92.48;96147.25;5063079;28;20067;-68
2021/11/27 11:20:57;;;;;;;11.27;6.22;;;;;;;5.17;91.96;96160.25;5065909;28;20305;-68
2021/11/27 11:23:25;;;;;;;9.75;6.35;;;;;;;5.18;92.00;96167.13;5058333;28;20043;-68
2021/11/27 11:26:05;;;;;;;11.63;7.30;;;;;;;5.14;92.74;96169.91;5065633;28;20029;-68
2021/11/27 11:28:39;;;;;;;13.48;7.32;;;;;;;5.12;92.58;96167.38;5065368;28;20083;-68
2021/11/27 11:31:10;;;;;;;13.75;6.22;;;;;;;5.15;91.47;96169.00;5064916;28;20371;-68
2021/11/27 11:33:39;;;;;;;8.18;5.68;;;;;;;5.12;92.05;96167.38;5065409;28;20029;-67
2021/11/27 11:36:08;;;;;;;14.05;6.70;;;;;;;5.19;92.27;96173.22;5064972;28;20040;-67
2021/11/27 11:38:33;;;;;;;11.02;6.28;;;;;;;5.18;92.71;96172.34;5065126;28;20029;-68
2021/11/27 11:40:59;;;;;;;10.02;6.03;;;;;;;5.26;92.16;96174.69;5065377;28;20344;-67